Time;durP1;ratioP1;P1;durP2;ratioP2;P2;SDS_P1;SDS_P2;PMS_P1;PMS_P2;Temp;Humidity;BMP_temperature;BMP_pressure;BME280_temperature;BME280_humidity;BME280_pressure;Samples;Min_cycle;Max_cycle;Signal;HPM_P1;HPM_P2
2022/12/17 13:06:51;;;;;;;53.47;29.50;;;1.80;99.90;;;;;;5033954;28;20781;-39
2022/12/17 13:09:24;;;;;;;52.63;29.63;;;1.80;99.90;;;;;;5040265;28;20079;-39
2022/12/17 13:11:58;;;;;;;52.83;29.15;;;1.80;99.90;;;;;;5040319;28;20095;-41
2022/12/17 13:14:43;;;;;;;52.88;29.65;;;1.80;99.90;;;;;;5040446;28;20039;-39
2022/12/17 13:17:15;;;;;;;55.58;30.50;;;1.80;99.90;;;;;;5039652;28;20028;-39
2022/12/17 13:19:44;;;;;;;56.20;31.92;;;1.80;99.90;;;;;;5039673;28;20099;-40
2022/12/17 13:22:14;;;;;;;54.55;29.70;;;1.80;99.90;;;;;;5040171;28;20111;-39
2022/12/17 13:24:44;;;;;;;56.65;31.17;;;1.80;99.90;;;;;;5039220;28;20116;-39
2022/12/17 13:27:45;;;;;;;54.28;29.73;;;1.80;99.90;;;;;;5040226;28;20068;-39
2022/12/17 13:30:21;;;;;;;52.03;29.23;;;1.80;99.90;;;;;;5015724;28;20026;-40
2022/12/17 13:33:17;;;;;;;55.97;30.45;;;1.80;99.90;;;;;;5037207;28;20051;-37
2022/12/17 13:36:02;;;;;;;55.63;30.75;;;1.80;99.90;;;;;;5044356;28;20116;-39
2022/12/17 13:38:58;;;;;;;52.10;30.38;;;1.70;99.90;;;;;;5024290;28;20072;-39
2022/12/17 13:41:34;;;;;;;53.40;29.55;;;1.70;99.90;;;;;;5043024;28;20142;-40
2022/12/17 13:44:38;;;;;;;54.00;29.42;;;1.70;99.90;;;;;;5043867;28;20393;-38
2022/12/17 13:47:05;;;;;;;55.08;29.73;;;1.70;99.90;;;;;;5041147;28;20088;-39
2022/12/17 13:49:31;;;;;;;56.85;30.98;;;1.70;99.90;;;;;;5044109;28;20032;-40
2022/12/17 13:52:05;;;;;;;60.80;33.22;;;1.60;99.90;;;;;;5042432;28;20036;-40
2022/12/17 13:54:31;;;;;;;60.95;32.55;;;1.60;99.90;;;;;;5044009;28;20063;-38
2022/12/17 13:57:12;;;;;;;59.50;32.53;;;1.60;99.90;;;;;;5043281;28;20052;-34
2022/12/17 13:59:37;;;;;;;60.78;32.20;;;1.60;99.90;;;;;;5043037;28;20073;-40
2022/12/17 14:02:21;;;;;;;60.00;31.35;;;1.50;99.90;;;;;;5043070;28;20762;-39
2022/12/17 14:04:51;;;;;;;58.58;30.35;;;1.50;99.90;;;;;;5043212;28;20043;-37
2022/12/17 14:07:17;;;;;;;50.58;28.30;;;1.50;99.90;;;;;;5043298;28;20071;-38
2022/12/17 14:09:43;;;;;;;56.15;30.08;;;1.50;99.90;;;;;;5043636;28;20021;-39
2022/12/17 14:12:23;;;;;;;50.42;27.83;;;1.50;99.90;;;;;;5040621;28;20036;-40
2022/12/17 14:14:56;;;;;;;62.55;33.47;;;1.50;99.90;;;;;;5023225;28;20104;-40
2022/12/17 14:17:44;;;;;;;57.47;30.77;;;1.50;99.90;;;;;;5039896;28;20028;-40
2022/12/17 14:20:12;;;;;;;54.80;29.92;;;1.50;99.90;;;;;;5042556;28;20049;-39
2022/12/17 14:22:41;;;;;;;55.15;29.70;;;1.50;99.90;;;;;;5043871;28;20032;-41
2022/12/17 14:25:15;;;;;;;54.83;29.77;;;1.50;99.90;;;;;;5043609;28;20029;-40
2022/12/17 14:27:56;;;;;;;55.20;29.13;;;1.50;99.90;;;;;;5042171;28;20025;-38
2022/12/17 14:30:36;;;;;;;55.70;30.40;;;1.40;99.90;;;;;;5040254;28;20047;-37
2022/12/17 14:33:02;;;;;;;56.95;30.17;;;1.40;99.90;;;;;;5041122;28;20049;-39
2022/12/17 14:35:37;;;;;;;53.08;28.98;;;1.40;99.90;;;;;;5042781;28;20020;-38
2022/12/17 14:38:03;;;;;;;48.75;26.65;;;1.30;99.90;;;;;;5041939;28;20044;-40
2022/12/17 14:40:29;;;;;;;52.22;28.40;;;1.30;99.90;;;;;;5041633;28;20041;-40
2022/12/17 14:42:59;;;;;;;59.83;31.63;;;1.30;99.90;;;;;;5041656;28;20410;-39
2022/12/17 14:45:31;;;;;;;56.95;30.25;;;1.30;99.90;;;;;;5041019;28;20094;-35
2022/12/17 14:47:59;;;;;;;57.42;31.00;;;1.20;99.90;;;;;;5041300;28;20021;-38
2022/12/17 14:50:26;;;;;;;51.95;28.17;;;1.20;99.90;;;;;;5042408;28;20025;-39
2022/12/17 14:52:54;;;;;;;59.03;31.77;;;1.30;99.90;;;;;;5041664;28;20477;-40
2022/12/17 14:55:27;;;;;;;65.93;34.72;;;1.20;99.90;;;;;;5041199;28;20024;-40
2022/12/17 14:58:15;;;;;;;72.43;36.38;;;1.20;99.90;;;;;;5042833;28;20024;-40
2022/12/17 15:00:52;;;;;;;66.85;34.47;;;1.20;99.90;;;;;;5042294;28;20708;-40
2022/12/17 15:03:42;;;;;;;67.45;33.78;;;1.20;99.90;;;;;;5041067;28;20025;-40
2022/12/17 15:06:17;;;;;;;69.97;35.40;;;1.10;99.90;;;;;;5042070;28;20039;-40
2022/12/17 15:08:45;;;;;;;65.43;34.33;;;1.10;99.90;;;;;;5041134;28;20055;-39
2022/12/17 15:11:16;;;;;;;64.97;33.38;;;1.10;99.90;;;;;;5042092;28;20094;-40
2022/12/17 15:13:42;;;;;;;59.75;32.08;;;1.10;99.90;;;;;;5041110;28;20029;-40
2022/12/17 15:16:10;;;;;;;56.28;28.98;;;1.00;99.90;;;;;;5040981;28;20064;-39
2022/12/17 15:18:36;;;;;;;57.97;31.10;;;1.00;99.90;;;;;;5040715;28;20166;-39
2022/12/17 15:21:02;;;;;;;59.33;32.25;;;1.00;99.90;;;;;;5042365;28;20036;-39
2022/12/17 15:23:29;;;;;;;58.47;31.90;;;1.00;99.90;;;;;;5041859;28;20040;-38
2022/12/17 15:25:55;;;;;;;55.50;30.52;;;0.90;99.90;;;;;;5042126;28;20029;-40
2022/12/17 15:28:21;;;;;;;52.25;28.58;;;0.90;99.90;;;;;;5042019;28;20049;-39
2022/12/17 15:30:48;;;;;;;49.35;27.30;;;0.90;99.90;;;;;;5040702;28;20670;-38
2022/12/17 15:33:14;;;;;;;49.05;26.70;;;0.80;99.90;;;;;;5041933;28;20155;-39
2022/12/17 15:35:41;;;;;;;44.30;24.40;;;0.80;99.90;;;;;;5041395;28;20039;-40
2022/12/17 15:38:11;;;;;;;47.47;25.30;;;0.80;99.90;;;;;;5040529;28;20831;-40
2022/12/17 15:40:38;;;;;;;50.75;26.98;;;0.80;99.90;;;;;;5041237;28;20443;-40
2022/12/17 15:43:12;;;;;;;53.33;28.05;;;0.70;99.90;;;;;;5041658;28;20507;-40
2022/12/17 15:45:49;;;;;;;49.17;26.20;;;0.70;99.90;;;;;;5041071;28;20027;-38
2022/12/17 15:48:16;;;;;;;51.17;27.02;;;0.70;99.90;;;;;;5042286;28;20029;-40
2022/12/17 15:50:42;;;;;;;44.78;24.65;;;0.70;99.90;;;;;;5041153;28;20686;-39
2022/12/17 15:53:08;;;;;;;50.78;28.40;;;0.80;99.90;;;;;;5042108;28;20036;-40
2022/12/17 15:55:34;;;;;;;49.13;26.67;;;0.70;99.90;;;;;;5041198;28;20165;-34
2022/12/17 15:58:00;;;;;;;49.58;27.77;;;0.70;99.90;;;;;;5041447;28;20108;-40
2022/12/17 16:00:25;;;;;;;52.50;28.45;;;0.70;99.90;;;;;;5041954;28;20083;-38
2022/12/17 16:02:51;;;;;;;51.33;29.00;;;0.60;99.90;;;;;;5041622;28;20025;-39
2022/12/17 16:05:17;;;;;;;50.90;28.75;;;0.60;99.90;;;;;;5040393;28;20036;-39
2022/12/17 16:07:43;;;;;;;56.33;30.30;;;0.60;99.90;;;;;;5041189;28;20021;-41
2022/12/17 16:10:10;;;;;;;54.58;29.88;;;0.60;99.90;;;;;;5041542;28;20428;-40
2022/12/17 16:12:36;;;;;;;55.90;31.60;;;0.60;99.90;;;;;;5040813;28;20033;-41
2022/12/17 16:15:02;;;;;;;60.30;33.13;;;0.60;99.90;;;;;;5040847;28;20684;-39
2022/12/17 16:17:27;;;;;;;50.42;29.73;;;0.60;99.90;;;;;;5042264;28;20036;-40
2022/12/17 16:19:53;;;;;;;58.75;31.90;;;0.60;99.90;;;;;;5040102;28;20033;-37
2022/12/17 16:22:19;;;;;;;53.72;30.48;;;0.60;99.90;;;;;;5040137;28;20095;-39
2022/12/17 16:24:45;;;;;;;50.63;28.05;;;0.60;99.90;;;;;;5039590;28;20032;-38
2022/12/17 16:27:12;;;;;;;54.13;29.75;;;0.60;99.90;;;;;;5039852;28;20048;-38
2022/12/17 16:29:38;;;;;;;50.78;26.80;;;0.60;99.90;;;;;;5040830;28;20503;-40
2022/12/17 16:32:04;;;;;;;50.17;27.95;;;0.60;99.90;;;;;;5040405;28;20041;-38
2022/12/17 16:34:29;;;;;;;54.92;30.85;;;0.60;99.90;;;;;;5040595;28;20040;-37
2022/12/17 16:36:55;;;;;;;51.17;28.45;;;0.60;99.90;;;;;;5040576;28;20824;-39
2022/12/17 16:39:21;;;;;;;61.95;33.40;;;0.50;99.90;;;;;;5040316;28;20725;-38
2022/12/17 16:41:46;;;;;;;65.85;35.58;;;0.50;99.90;;;;;;5039741;28;20163;-39
2022/12/17 16:44:12;;;;;;;65.57;36.00;;;0.50;99.90;;;;;;5040986;28;20063;-40
2022/12/17 16:46:41;;;;;;;60.17;32.92;;;0.40;99.90;;;;;;5040074;28;20025;-41
2022/12/17 16:49:12;;;;;;;59.85;33.22;;;0.40;99.90;;;;;;5040383;28;20020;-39
2022/12/17 16:51:38;;;;;;;57.72;31.00;;;0.40;99.90;;;;;;5040734;28;20017;-39
2022/12/17 16:54:06;;;;;;;57.35;30.58;;;0.40;99.90;;;;;;5038939;28;20634;-40
2022/12/17 16:56:32;;;;;;;56.60;31.50;;;0.40;99.90;;;;;;5039755;28;20847;-39
2022/12/17 16:58:58;;;;;;;54.83;30.38;;;0.40;99.90;;;;;;5040976;28;20029;-40
2022/12/17 17:01:27;;;;;;;54.90;29.73;;;0.40;99.90;;;;;;5040006;28;20028;-39
2022/12/17 17:03:53;;;;;;;53.38;29.27;;;0.40;99.90;;;;;;5039959;28;20564;-40
2022/12/17 17:06:18;;;;;;;61.67;31.60;;;0.40;99.90;;;;;;5040773;28;20132;-40
2022/12/17 17:08:44;;;;;;;53.72;29.13;;;0.40;99.90;;;;;;5040659;28;20071;-39
2022/12/17 17:11:21;;;;;;;53.25;28.02;;;0.40;99.90;;;;;;5044936;28;20070;-40
2022/12/17 17:13:49;;;;;;;53.88;28.88;;;0.40;99.90;;;;;;5044323;28;20573;-41
2022/12/17 17:16:15;;;;;;;49.60;27.15;;;0.30;99.90;;;;;;5043653;28;20060;-41
2022/12/17 17:18:41;;;;;;;50.35;28.48;;;0.30;99.90;;;;;;5042759;28;20493;-41
2022/12/17 17:21:19;;;;;;;58.17;30.67;;;0.30;99.90;;;;;;5043599;28;20059;-39
2022/12/17 17:23:52;;;;;;;52.45;28.98;;;0.20;99.90;;;;;;5043001;28;20575;-39
2022/12/17 17:26:18;;;;;;;58.50;30.63;;;0.20;99.90;;;;;;5044097;28;20128;-40
2022/12/17 17:28:45;;;;;;;57.45;30.17;;;0.20;99.90;;;;;;5044570;28;20064;-41
2022/12/17 17:31:13;;;;;;;49.22;27.10;;;0.10;99.90;;;;;;5043658;28;20119;-41
2022/12/17 17:33:42;;;;;;;54.85;28.60;;;0.20;99.90;;;;;;5043699;28;20053;-40
2022/12/17 17:36:13;;;;;;;48.42;24.92;;;0.20;99.90;;;;;;5043489;28;20506;-38
2022/12/17 17:38:40;;;;;;;50.10;28.30;;;0.10;99.90;;;;;;5044132;28;20170;-40
2022/12/17 17:41:07;;;;;;;45.40;25.40;;;0.10;99.90;;;;;;5043860;28;20041;-40
2022/12/17 17:43:33;;;;;;;52.67;26.95;;;0.20;99.90;;;;;;5042898;28;20043;-40
2022/12/17 17:46:14;;;;;;;49.65;26.25;;;0.20;99.90;;;;;;5043721;28;20033;-41
2022/12/17 17:48:40;;;;;;;47.25;25.77;;;0.20;99.90;;;;;;5043697;28;20055;-40
2022/12/17 17:51:10;;;;;;;50.95;27.50;;;0.20;99.90;;;;;;5043665;28;20033;-41
2022/12/17 17:53:36;;;;;;;49.00;26.23;;;0.20;99.90;;;;;;5043541;28;20025;-41
2022/12/17 17:56:04;;;;;;;52.03;29.13;;;0.20;99.90;;;;;;5043526;28;20021;-43
2022/12/17 17:58:30;;;;;;;46.28;26.17;;;0.20;99.90;;;;;;5043033;28;20182;-39
2022/12/17 18:00:56;;;;;;;48.90;26.48;;;0.20;99.90;;;;;;5043651;28;20053;-38
2022/12/17 18:03:21;;;;;;;49.47;27.77;;;0.20;99.90;;;;;;5043594;28;20017;-40
2022/12/17 18:05:47;;;;;;;46.40;26.00;;;0.20;99.90;;;;;;5043271;28;20029;-39
2022/12/17 18:08:12;;;;;;;47.53;26.55;;;0.10;99.90;;;;;;5043322;28;20041;-39
2022/12/17 18:10:38;;;;;;;45.50;26.55;;;0.20;99.90;;;;;;5043329;28;20585;-38
2022/12/17 18:15:48;;;;;;;48.42;27.13;;;0.20;99.90;;;;;;5043123;28;20499;-41
2022/12/17 18:18:13;;;;;;;44.10;25.17;;;0.10;99.90;;;;;;5042601;28;20136;-41
2022/12/17 18:20:39;;;;;;;41.55;23.85;;;0.10;99.90;;;;;;5041786;28;20061;-40
2022/12/17 18:23:04;;;;;;;42.30;23.90;;;0.10;99.90;;;;;;5043618;28;20028;-40
2022/12/17 18:25:30;;;;;;;44.22;24.15;;;0.10;99.90;;;;;;5042677;28;20075;-40
2022/12/17 18:27:55;;;;;;;47.13;24.83;;;0.10;99.90;;;;;;5043174;28;20033;-40
2022/12/17 18:30:21;;;;;;;48.22;24.92;;;0.10;99.90;;;;;;5043861;28;20032;-39
2022/12/17 18:32:50;;;;;;;43.17;23.50;;;0.00;99.90;;;;;;5042078;28;20132;-38
2022/12/17 18:35:15;;;;;;;41.13;22.30;;;0.10;99.90;;;;;;5042501;28;20025;-41
2022/12/17 18:37:41;;;;;;;45.42;24.02;;;0.00;99.90;;;;;;5043415;28;20070;-40
2022/12/17 18:40:07;;;;;;;38.13;21.95;;;0.00;99.90;;;;;;5042065;28;20091;-41
2022/12/17 18:45:17;;;;;;;47.55;25.27;;;0.10;99.90;;;;;;5043064;28;20793;-41
2022/12/17 18:47:43;;;;;;;48.47;25.83;;;0.00;99.90;;;;;;5041928;28;20025;-40
2022/12/17 18:50:10;;;;;;;49.67;26.52;;;0.00;99.90;;;;;;5042687;28;20028;-41
2022/12/17 18:52:36;;;;;;;52.58;27.73;;;-0.10;99.90;;;;;;5042527;28;20116;-40
2022/12/17 18:55:02;;;;;;;49.15;26.65;;;-0.10;99.90;;;;;;5042226;28;20032;-40
2022/12/17 18:57:28;;;;;;;43.97;26.05;;;0.00;99.90;;;;;;5042902;28;20730;-41
2022/12/17 18:59:53;;;;;;;47.30;26.15;;;0.00;99.90;;;;;;5042566;28;20033;-39
2022/12/17 19:02:19;;;;;;;43.65;24.25;;;0.00;99.90;;;;;;5042143;28;20025;-40
2022/12/17 19:04:44;;;;;;;49.92;27.20;;;0.00;99.90;;;;;;5042982;28;20029;-40
2022/12/17 19:07:10;;;;;;;53.10;29.75;;;-0.10;99.90;;;;;;5042464;28;20052;-41
2022/12/17 19:09:38;;;;;;;48.67;26.70;;;-0.20;99.90;;;;;;5041972;28;20029;-40
2022/12/17 19:12:06;;;;;;;54.88;28.10;;;-0.20;99.90;;;;;;5042052;28;20066;-40
2022/12/17 19:14:32;;;;;;;46.25;25.35;;;-0.20;99.90;;;;;;5041829;28;20033;-40
2022/12/17 19:16:58;;;;;;;44.78;24.08;;;-0.20;99.90;;;;;;5041895;28;20034;-39
2022/12/17 19:19:24;;;;;;;47.63;26.85;;;-0.20;99.90;;;;;;5041195;28;21899;-41
2022/12/17 19:21:52;;;;;;;50.03;26.83;;;-0.20;99.90;;;;;;5041470;28;20473;-40
2022/12/17 19:24:20;;;;;;;45.20;25.20;;;-0.30;99.90;;;;;;5041489;28;20586;-41
2022/12/17 19:26:46;;;;;;;43.58;23.95;;;-0.30;99.90;;;;;;5041771;28;20060;-42
2022/12/17 19:29:13;;;;;;;48.08;25.80;;;-0.30;99.90;;;;;;5041272;28;20136;-39
2022/12/17 19:31:39;;;;;;;67.57;36.83;;;-0.30;99.90;;;;;;5041270;28;20025;-40
2022/12/17 19:34:09;;;;;;;52.30;27.38;;;-0.30;99.90;;;;;;5041609;28;20098;-40
2022/12/17 19:36:35;;;;;;;52.38;26.92;;;-0.30;99.90;;;;;;5040996;28;20032;-40
2022/12/17 19:39:03;;;;;;;48.92;25.48;;;-0.20;99.90;;;;;;5041771;28;20058;-40
2022/12/17 19:41:31;;;;;;;49.58;25.95;;;-0.20;99.90;;;;;;5041674;28;20129;-40
2022/12/17 19:43:59;;;;;;;47.40;23.85;;;-0.20;99.90;;;;;;5041039;28;20078;-40
2022/12/17 19:46:25;;;;;;;48.47;25.30;;;-0.20;99.90;;;;;;5041692;28;20115;-39
2022/12/17 19:48:51;;;;;;;45.33;24.10;;;-0.20;99.90;;;;;;5041519;28;20056;-40
2022/12/17 19:51:21;;;;;;;44.95;24.15;;;-0.20;99.90;;;;;;5023679;28;20041;-38
2022/12/17 19:53:47;;;;;;;46.45;25.23;;;-0.20;99.90;;;;;;5040184;28;20029;-40
2022/12/17 19:56:20;;;;;;;43.33;23.50;;;-0.20;99.90;;;;;;5041495;28;20025;-39
2022/12/17 19:58:51;;;;;;;46.58;24.02;;;-0.20;99.90;;;;;;5039990;28;20080;-40
2022/12/17 20:01:22;;;;;;;51.38;27.67;;;-0.20;99.90;;;;;;5041396;28;20493;-40
2022/12/17 20:03:48;;;;;;;48.00;26.38;;;-0.30;99.90;;;;;;5039936;28;20025;-40
2022/12/17 20:06:16;;;;;;;49.03;26.17;;;-0.30;99.90;;;;;;5041058;28;20025;-40
2022/12/17 20:08:42;;;;;;;47.55;23.52;;;-0.40;99.90;;;;;;5041113;28;20021;-41
2022/12/17 20:14:07;;;;;;;39.65;20.67;;;-0.40;99.90;;;;;;5041573;28;20039;-40
2022/12/17 20:16:44;;;;;;;40.20;22.27;;;-0.40;99.90;;;;;;5042336;28;20117;-37
2022/12/17 20:19:13;;;;;;;41.40;21.30;;;-0.40;99.90;;;;;;5040279;28;20032;-38
2022/12/17 20:21:40;;;;;;;38.90;20.83;;;-0.40;99.90;;;;;;5041608;28;20099;-40
2022/12/17 20:24:06;;;;;;;37.78;19.02;;;-0.50;99.90;;;;;;5040952;28;20547;-39
2022/12/17 20:26:31;;;;;;;36.78;19.27;;;-0.50;99.90;;;;;;5040516;28;20033;-39
2022/12/17 20:28:58;;;;;;;34.30;17.60;;;-0.50;99.90;;;;;;5040468;28;20446;-41
2022/12/17 20:31:24;;;;;;;37.45;19.70;;;-0.60;99.90;;;;;;5040896;28;20033;-39
2022/12/17 20:33:50;;;;;;;39.95;20.20;;;-0.60;99.90;;;;;;5038611;28;20102;-39
2022/12/17 20:36:20;;;;;;;41.00;20.35;;;-0.60;99.90;;;;;;5040198;28;20475;-39
2022/12/17 20:38:46;;;;;;;37.63;19.45;;;-0.60;99.90;;;;;;5040404;28;20120;-39
2022/12/17 20:41:17;;;;;;;41.22;21.42;;;-0.60;99.90;;;;;;5041139;28;20815;-40
2022/12/17 20:43:42;;;;;;;47.13;23.15;;;-0.60;99.90;;;;;;5039956;28;20040;-38
2022/12/17 20:46:09;;;;;;;41.13;21.88;;;-0.60;99.90;;;;;;5039699;28;20054;-41
2022/12/17 20:48:40;;;;;;;41.63;22.52;;;-0.60;99.90;;;;;;5039691;28;20559;-38
2022/12/17 20:51:11;;;;;;;46.72;23.20;;;-0.70;99.90;;;;;;5036836;28;20051;-39
2022/12/17 20:53:44;;;;;;;50.13;23.50;;;-0.70;99.90;;;;;;5039755;28;20029;-40
2022/12/17 20:56:13;;;;;;;50.45;26.08;;;-0.70;99.90;;;;;;5039645;28;20013;-41
2022/12/17 20:58:39;;;;;;;43.67;23.10;;;-0.70;99.90;;;;;;5040046;28;20098;-41
2022/12/17 21:01:08;;;;;;;48.28;23.90;;;-0.70;99.90;;;;;;5039536;28;20045;-37
2022/12/17 21:03:34;;;;;;;42.20;21.95;;;-0.70;99.90;;;;;;5037864;28;20056;-39
2022/12/17 21:06:11;;;;;;;44.67;22.48;;;-0.70;99.90;;;;;;5039179;28;20056;-42
2022/12/17 21:08:37;;;;;;;48.22;23.23;;;-0.70;99.90;;;;;;5038832;28;20066;-41
2022/12/17 21:11:03;;;;;;;44.10;22.33;;;-0.70;99.90;;;;;;5039398;28;20029;-41
2022/12/17 21:13:29;;;;;;;43.67;22.37;;;-0.70;99.90;;;;;;5039873;28;20025;-41
2022/12/17 21:15:58;;;;;;;40.67;20.27;;;-0.70;99.90;;;;;;5039131;28;20021;-38
2022/12/17 21:18:24;;;;;;;35.93;19.10;;;-0.80;99.90;;;;;;5040291;28;20032;-38
2022/12/17 21:20:58;;;;;;;45.87;21.83;;;-0.90;99.90;;;;;;5039573;28;20767;-41
2022/12/17 21:23:25;;;;;;;49.10;23.08;;;-0.90;99.90;;;;;;5039931;28;20558;-41
2022/12/17 21:26:06;;;;;;;51.72;23.48;;;-0.90;99.90;;;;;;5039864;28;20025;-41
2022/12/17 21:28:33;;;;;;;44.15;22.33;;;-0.90;99.90;;;;;;5039518;28;20033;-40
2022/12/17 21:30:58;;;;;;;43.75;22.45;;;-0.90;99.90;;;;;;5039886;28;20477;-38
2022/12/17 21:33:25;;;;;;;46.88;23.02;;;-0.90;99.90;;;;;;5040351;28;20048;-41
2022/12/17 21:36:00;;;;;;;41.42;21.45;;;-0.90;99.90;;;;;;5039143;28;20040;-41
2022/12/17 21:38:27;;;;;;;46.15;24.15;;;-0.90;99.90;;;;;;5039425;28;20033;-40
2022/12/17 21:40:53;;;;;;;42.70;22.23;;;-0.90;99.90;;;;;;5039299;28;20037;-41
2022/12/17 21:43:19;;;;;;;44.38;22.70;;;-0.90;99.90;;;;;;5039144;28;20099;-40
2022/12/17 21:45:44;;;;;;;43.40;21.60;;;-0.90;99.90;;;;;;5039498;28;20033;-40
2022/12/17 21:48:10;;;;;;;45.53;24.00;;;-1.00;99.90;;;;;;5039237;28;20017;-40
2022/12/17 21:50:40;;;;;;;43.85;21.52;;;-1.00;99.90;;;;;;5038336;28;20032;-40
2022/12/17 21:53:09;;;;;;;50.80;24.33;;;-1.00;99.90;;;;;;5038641;28;20075;-42
2022/12/17 21:55:35;;;;;;;46.10;23.17;;;-1.00;99.90;;;;;;5042044;28;20574;-40
2022/12/17 21:58:00;;;;;;;44.47;22.52;;;-1.10;99.90;;;;;;5041854;28;20123;-40
2022/12/17 22:00:26;;;;;;;44.35;21.40;;;-1.10;99.90;;;;;;5043607;28;20044;-40
2022/12/17 22:02:52;;;;;;;39.40;20.67;;;-1.10;99.90;;;;;;5043542;28;20668;-40
2022/12/17 22:05:18;;;;;;;43.07;21.43;;;-1.10;99.90;;;;;;5043027;28;20032;-39
2022/12/17 22:07:43;;;;;;;40.80;20.67;;;-1.10;99.90;;;;;;5043226;28;20025;-40
2022/12/17 22:10:09;;;;;;;42.47;20.67;;;-1.10;99.90;;;;;;5042825;28;20037;-40
2022/12/17 22:15:19;;;;;;;44.50;21.97;;;-1.10;99.90;;;;;;5043248;28;20071;-40
2022/12/17 22:17:45;;;;;;;46.97;22.50;;;-1.10;99.90;;;;;;5042390;28;20457;-41
2022/12/17 22:20:17;;;;;;;44.37;23.23;;;-1.10;99.90;;;;;;5043145;28;20559;-41
2022/12/17 22:22:43;;;;;;;47.05;23.05;;;-1.10;99.90;;;;;;5042850;28;20024;-42
2022/12/17 22:25:10;;;;;;;46.90;23.37;;;-1.10;99.90;;;;;;5042443;28;20044;-43
2022/12/17 22:27:37;;;;;;;47.03;22.90;;;-1.10;99.90;;;;;;5042720;28;20025;-41
2022/12/17 22:33:01;;;;;;;47.67;23.13;;;-1.10;99.90;;;;;;5041908;28;20806;-39
2022/12/17 22:35:32;;;;;;;43.03;21.67;;;-1.10;99.90;;;;;;5043726;28;20537;-41
2022/12/17 22:37:58;;;;;;;47.83;22.50;;;-1.20;99.90;;;;;;5043571;28;20115;-41
2022/12/17 22:40:24;;;;;;;46.83;23.85;;;-1.20;99.90;;;;;;5042974;28;20037;-38
2022/12/17 22:45:37;;;;;;;44.63;20.97;;;-1.30;99.90;;;;;;5033888;28;20044;-38
2022/12/17 22:48:04;;;;;;;46.57;23.67;;;-1.30;99.90;;;;;;5042441;28;20024;-40
2022/12/17 22:50:29;;;;;;;48.37;24.60;;;-1.50;99.90;;;;;;5042566;28;20033;-41
2022/12/17 22:52:58;;;;;;;43.13;21.53;;;-1.50;99.90;;;;;;5042052;28;20711;-41
2022/12/17 22:55:23;;;;;;;45.83;21.07;;;-1.60;99.90;;;;;;5042314;28;20881;-41
2022/12/17 22:57:49;;;;;;;47.70;22.50;;;-1.70;99.90;;;;;;5042600;28;20029;-41
2022/12/17 23:00:32;;;;;;;50.83;24.27;;;-1.70;99.90;;;;;;5041753;28;20531;-41
2022/12/17 23:02:58;;;;;;;47.70;23.03;;;-1.80;99.90;;;;;;5041867;28;20499;-42
2022/12/17 23:05:25;;;;;;;47.97;24.08;;;-1.90;99.90;;;;;;5042085;28;20393;-42
2022/12/17 23:07:51;;;;;;;51.67;25.87;;;-1.90;99.90;;;;;;5041656;28;20033;-41
2022/12/17 23:10:17;;;;;;;52.40;25.13;;;-1.90;99.90;;;;;;5041908;28;20040;-40
2022/12/17 23:12:49;;;;;;;46.67;23.43;;;-2.00;99.90;;;;;;5042587;28;20060;-39
2022/12/17 23:15:19;;;;;;;42.90;21.73;;;-2.00;99.90;;;;;;5041980;28;20025;-38
2022/12/17 23:17:45;;;;;;;51.43;23.23;;;-2.00;99.90;;;;;;5022580;28;20152;-40
2022/12/17 23:20:11;;;;;;;49.25;23.60;;;-2.10;99.90;;;;;;5036738;28;20071;-40
2022/12/17 23:22:37;;;;;;;49.07;24.30;;;-2.10;99.90;;;;;;5041269;28;20040;-41
2022/12/17 23:25:03;;;;;;;47.17;24.00;;;-2.20;99.90;;;;;;5042199;28;20017;-39
2022/12/17 23:27:31;;;;;;;47.30;23.77;;;-2.10;99.90;;;;;;5041736;28;20029;-41
2022/12/17 23:29:58;;;;;;;46.60;24.07;;;-2.20;99.90;;;;;;5041426;28;20098;-41
2022/12/17 23:32:23;;;;;;;53.80;25.30;;;-2.20;99.90;;;;;;5041841;28;20152;-41
2022/12/17 23:34:49;;;;;;;50.90;25.17;;;-2.20;99.90;;;;;;5041525;28;20021;-42
2022/12/17 23:37:14;;;;;;;55.90;26.60;;;-2.20;99.90;;;;;;5041972;28;20143;-42
2022/12/17 23:39:40;;;;;;;60.97;26.93;;;-2.20;99.90;;;;;;5041073;28;20287;-40
2022/12/17 23:42:05;;;;;;;51.17;25.37;;;-2.20;99.90;;;;;;5041051;28;20495;-41
2022/12/17 23:44:31;;;;;;;54.83;26.33;;;-2.30;99.90;;;;;;5041952;28;20060;-40
2022/12/17 23:47:00;;;;;;;54.43;26.87;;;-2.20;99.90;;;;;;5041662;28;20013;-41
2022/12/17 23:49:25;;;;;;;59.50;27.43;;;-2.30;99.90;;;;;;5041924;28;20043;-41
2022/12/17 23:51:51;;;;;;;52.40;26.50;;;-2.30;99.90;;;;;;5041560;28;20025;-37
2022/12/17 23:54:16;;;;;;;58.70;27.43;;;-2.30;99.90;;;;;;5041543;28;20148;-41
2022/12/17 23:56:43;;;;;;;55.50;27.20;;;-2.30;99.90;;;;;;5039613;28;20098;-39
2022/12/17 23:59:09;;;;;;;53.93;26.47;;;-2.30;99.90;;;;;;5041727;28;20075;-39
